createdAt,value
2019-05-02T00:04:33.000Z,48.261
2019-05-02T00:14:33.000Z,48.258
2019-05-02T00:24:33.000Z,48.224
2019-05-02T00:34:33.000Z,48.296
2019-05-02T00:44:33.000Z,48.285
2019-05-02T00:54:34.000Z,48.313
2019-05-02T01:04:33.000Z,48.3
2019-05-02T01:14:33.000Z,48.309
2019-05-02T01:24:37.000Z,48.318
2019-05-02T01:34:33.000Z,48.316
2019-05-02T01:44:33.000Z,48.334
2019-05-02T01:54:33.000Z,48.343
2019-05-02T02:04:33.000Z,48.406
2019-05-02T02:14:35.000Z,48.393
2019-05-02T02:24:34.000Z,48.349
2019-05-02T02:34:36.000Z,48.368
2019-05-02T02:44:33.000Z,48.398
2019-05-02T02:54:36.000Z,48.45
2019-05-02T03:04:34.000Z,48.448
2019-05-02T03:14:34.000Z,48.416
2019-05-02T03:24:34.000Z,48.412
2019-05-02T03:34:34.000Z,48.411
2019-05-02T03:44:34.000Z,48.409
2019-05-02T04:04:34.000Z,48.438
2019-05-02T04:14:34.000Z,48.458
2019-05-02T04:24:34.000Z,48.447
2019-05-02T04:34:34.000Z,48.403
2019-05-02T04:44:34.000Z,48.497
2019-05-02T04:54:34.000Z,48.455
2019-05-02T05:04:34.000Z,48.549
2019-05-02T05:14:34.000Z,48.474
2019-05-02T05:24:35.000Z,48.453
2019-05-02T05:34:37.000Z,48.453
2019-05-02T05:44:34.000Z,48.44
2019-05-02T05:54:37.000Z,48.461
2019-05-02T06:04:36.000Z,48.291
2019-05-02T06:14:34.000Z,48.397
2019-05-02T06:24:38.000Z,48.257
2019-05-02T06:34:34.000Z,48.396
2019-05-02T06:44:38.000Z,48.364
2019-05-02T06:54:35.000Z,48.289
2019-05-02T07:04:34.000Z,48.321
2019-05-02T07:14:34.000Z,48.279
2019-05-02T07:34:34.000Z,48.207
2019-05-02T07:44:34.000Z,47.953
2019-05-02T07:54:34.000Z,47.935
2019-05-02T08:04:34.000Z,47.947
2019-05-02T08:14:34.000Z,47.865
2019-05-02T08:24:34.000Z,47.719
2019-05-02T08:34:34.000Z,47.563
2019-05-02T08:44:36.000Z,47.101
2019-05-02T08:54:34.000Z,47.134
2019-05-02T09:04:34.000Z,46.948
2019-05-02T09:14:36.000Z,46.759
2019-05-02T09:24:34.000Z,46.667
2019-05-02T09:34:34.000Z,46.642
2019-05-02T09:44:34.000Z,46.473
2019-05-02T09:54:34.000Z,46.23
2019-05-02T10:04:34.000Z,45.944
2019-05-02T10:14:34.000Z,45.919
2019-05-02T10:24:34.000Z,45.763
2019-05-02T10:34:34.000Z,45.714
2019-05-02T10:44:34.000Z,45.559
2019-05-02T10:54:34.000Z,45.443
2019-05-02T11:04:34.000Z,45.415
2019-05-02T11:14:35.000Z,45.397
2019-05-02T11:24:34.000Z,45.325
2019-05-02T11:34:35.000Z,45.337
2019-05-02T11:44:34.000Z,45.348
2019-05-02T12:04:35.000Z,45.136
2019-05-02T12:14:35.000Z,45.16
2019-05-02T12:24:35.000Z,45.205
2019-05-02T12:34:35.000Z,45.238
2019-05-02T12:44:35.000Z,45.25
2019-05-02T12:54:35.000Z,45.208
2019-05-02T13:14:35.000Z,45.337
2019-05-02T13:24:36.000Z,45.371
2019-05-02T13:34:35.000Z,45.456
2019-05-02T13:44:35.000Z,45.55
2019-05-02T13:54:35.000Z,45.591
2019-05-02T14:04:35.000Z,45.676
2019-05-02T14:14:35.000Z,45.696
2019-05-02T14:24:35.000Z,45.684
2019-05-02T14:34:35.000Z,45.877
2019-05-02T14:44:37.000Z,46.084
2019-05-02T14:54:35.000Z,46.114
2019-05-02T15:04:35.000Z,46.091
2019-05-02T15:14:35.000Z,46.089
2019-05-02T15:24:35.000Z,46.077
2019-05-02T15:34:36.000Z,46.119
2019-05-02T15:44:35.000Z,46.094
2019-05-02T15:54:35.000Z,46.157
2019-05-02T16:04:35.000Z,46.122
2019-05-02T16:14:35.000Z,46.195
2019-05-02T16:24:35.000Z,46.225
2019-05-02T16:34:36.000Z,46.277
2019-05-02T16:44:36.000Z,46.252
2019-05-02T16:54:35.000Z,46.305
2019-05-02T17:04:35.000Z,46.304
2019-05-02T17:14:35.000Z,46.377
2019-05-02T17:24:35.000Z,46.419
2019-05-02T17:34:35.000Z,46.46
2019-05-02T17:44:35.000Z,46.469
2019-05-02T17:54:35.000Z,46.531
2019-05-02T18:04:35.000Z,46.55
2019-05-02T18:14:35.000Z,46.645
2019-05-02T18:24:35.000Z,46.675
2019-05-02T18:34:37.000Z,46.643
2019-05-02T18:44:35.000Z,46.664
2019-05-02T18:54:35.000Z,46.714
2019-05-02T19:04:35.000Z,46.821
2019-05-02T19:14:35.000Z,46.863
2019-05-02T19:24:36.000Z,46.883
2019-05-02T19:34:35.000Z,46.913
2019-05-02T19:44:35.000Z,46.965
2019-05-02T19:54:35.000Z,47.029
2019-05-02T20:04:36.000Z,47.091
2019-05-02T20:14:35.000Z,47.112
2019-05-02T20:24:35.000Z,47.164
2019-05-02T20:34:36.000Z,47.206
2019-05-02T20:44:36.000Z,47.225
2019-05-02T20:54:36.000Z,47.287
2019-05-02T21:04:36.000Z,47.338
2019-05-02T21:14:36.000Z,47.36
2019-05-02T21:24:36.000Z,47.358
2019-05-02T21:34:36.000Z,47.432
2019-05-02T21:44:36.000Z,47.473
2019-05-02T21:54:36.000Z,47.45
2019-05-02T22:04:36.000Z,47.491
2019-05-02T22:14:39.000Z,47.552
2019-05-02T22:24:36.000Z,47.551
2019-05-02T22:34:36.000Z,47.624
2019-05-02T22:44:37.000Z,47.642
2019-05-02T22:54:36.000Z,47.673
2019-05-02T23:04:36.000Z,47.672
2019-05-02T23:14:36.000Z,47.638
2019-05-02T23:24:36.000Z,47.668
2019-05-02T23:34:40.000Z,47.742
2019-05-02T23:44:36.000Z,47.708
2019-05-02T23:54:36.000Z,47.729
